KGLR

Details ICAO KGLR
Name GAYLORD RGNL
Region United States
Timezone America/Detroit (UTC-4.0)
Plans Departing 1
Arriving 7
Stats Elevation 1,328 ft / 405 m (AMSL)
Location 45.013007° -84.703163°
Runways 2
Magnetic Variation 6.882° W
Sunrise 2018-05-23 10:03:09 UTC / 2018-05-23 06:03:09 Local
Sunset 2018-05-24 01:10:52 UTC / 2018-05-23 21:10:52 Local
Advertisement - Login to hide

Runways

ID Width Length Bearing (true) Bearing (mag) Surface Threshold Offset Overrun Length
09 150 ft / 46 m 6,562 ft / 2,000 m 90.12° 97.00° Asphalt 0 ft / 0 m 0 ft / 0 m
18 75 ft / 23 m 3,002 ft / 915 m 180.11° 186.99° Asphalt 0 ft / 0 m 0 ft / 0 m
27 150 ft / 46 m 6,562 ft / 2,000 m 270.13° 277.01° Asphalt 0 ft / 0 m 0 ft / 0 m
36 75 ft / 23 m 3,002 ft / 915 m 0.11° 6.99° Asphalt 0 ft / 0 m 0 ft / 0 m

Map

Weather


0- 5 10 15 20 25 30 35+ Temperature / ° C

Clouds and Precipitation
Forecast for 2018-05-23 12:00 UTC. Updated 35 minutes ago

Ground ~20,000 ft ~40,000 ft Winds

METAR

KGLR 230853Z AUTO 28003KT 10SM CLR 07/06 A3010 RMK AO2 SLP194 T00720056 53009

TAF

Not found

Frequencies

Recorded 118.37 MHz ASOS
Unicom 122.80 MHz CTAF/UNICOM
Warning: Do not use this data for real-world aviation or navigation. No guarantee of current accuracy is given.